createdAt,value
2022-11-01T16:13:15.487Z,100542.22
2022-11-01T16:15:41.773Z,100543.94
2022-11-01T16:18:08.034Z,100551.75
2022-11-01T16:20:34.440Z,100556.19
2022-11-01T16:23:00.688Z,100561.97
2022-11-01T16:25:27.665Z,100564.31
2022-11-01T16:27:54.661Z,100563.63
2022-11-01T16:30:20.846Z,100560.41
2022-11-01T16:32:47.106Z,100565.19
2022-11-01T16:35:13.357Z,100557.97
2022-11-01T16:37:39.648Z,100566.53
2022-11-01T16:40:06.243Z,100583.94
2022-11-01T16:42:33.313Z,100575.56
2022-11-01T16:44:59.571Z,100584.59
2022-11-01T16:47:25.891Z,100577.91
2022-11-01T16:49:52.221Z,100584.38
2022-11-01T16:52:18.486Z,100592.66
2022-11-01T16:54:44.844Z,100593.47
2022-11-01T16:57:11.199Z,100598.63
2022-11-01T16:59:37.962Z,100600.00
2022-11-01T17:02:04.341Z,100597.19
2022-11-01T17:04:30.742Z,100592.75
2022-11-01T17:07:00.007Z,100595.84
2022-11-01T17:09:27.238Z,100599.56
2022-11-01T17:11:54.368Z,100604.31
2022-11-01T17:14:21.082Z,100602.00
2022-11-01T17:16:48.075Z,100608.44
2022-11-01T17:19:14.454Z,100615.25
2022-11-01T17:21:40.964Z,100613.34
2022-11-01T17:24:07.225Z,100625.13
2022-11-01T17:26:33.481Z,100618.84
2022-11-01T17:28:59.749Z,100617.69
2022-11-01T17:31:26.235Z,100611.56
2022-11-01T17:33:52.487Z,100623.84
2022-11-01T17:36:18.785Z,100627.09
2022-11-01T17:38:45.032Z,100627.78
2022-11-01T17:41:11.298Z,100629.16
2022-11-01T17:43:37.636Z,100630.84
2022-11-01T17:46:04.687Z,100625.69
2022-11-01T17:48:31.040Z,100625.91
2022-11-01T17:50:57.299Z,100628.28
2022-11-01T17:53:23.580Z,100620.97
2022-11-01T17:55:49.843Z,100619.25
2022-11-01T18:01:07.391Z,100619.94
2022-11-01T18:03:33.955Z,100621.81
2022-11-01T18:06:00.276Z,100610.88
2022-11-01T18:08:26.831Z,100619.28
2022-11-01T18:10:53.079Z,100621.34
2022-11-01T18:13:19.336Z,100627.66
2022-11-01T18:15:45.741Z,100623.38
2022-11-01T18:18:12.166Z,100625.28
2022-11-01T18:20:38.770Z,100618.94
2022-11-01T18:23:05.068Z,100630.75
2022-11-01T18:25:31.390Z,100626.44
2022-11-01T18:27:57.655Z,100625.78
2022-11-01T18:31:33.461Z,100618.59
2022-11-01T18:33:59.748Z,100625.75
2022-11-01T18:55:34.550Z,100676.06
2022-11-01T18:58:01.038Z,100673.50
2022-11-01T19:00:27.563Z,100675.88
2022-11-01T19:02:58.675Z,100675.94
2022-11-01T19:05:25.802Z,100674.44
2022-11-01T19:10:39.302Z,100676.94
2022-11-01T19:13:05.709Z,100685.38
2022-11-01T19:15:31.992Z,100675.53
2022-11-01T19:17:58.301Z,100675.34
2022-11-01T19:20:25.169Z,100675.25
2022-11-01T19:22:51.442Z,100676.53
2022-11-01T19:25:17.719Z,100674.63
2022-11-01T19:27:44.005Z,100684.53
2022-11-01T19:30:10.358Z,100693.13
2022-11-01T19:32:36.619Z,100694.88
2022-11-01T19:35:02.871Z,100705.34
2022-11-01T19:37:31.814Z,100704.50
2022-11-01T19:40:01.195Z,100699.81
2022-11-01T19:42:27.522Z,100703.16
2022-11-01T19:44:53.778Z,100704.19
2022-11-01T19:47:20.055Z,100698.41
2022-11-01T19:49:46.314Z,100703.91
2022-11-01T19:52:13.132Z,100715.84
2022-11-01T19:54:39.385Z,100716.47
2022-11-01T19:57:05.643Z,100712.38
2022-11-01T19:59:31.908Z,100715.50
2022-11-01T20:01:58.922Z,100720.31
2022-11-01T20:04:27.909Z,100718.81
2022-11-01T20:06:55.129Z,100716.19
2022-11-01T20:09:21.418Z,100712.34
2022-11-01T20:11:47.670Z,100724.75
2022-11-01T20:14:13.924Z,100732.22
2022-11-01T20:16:40.251Z,100729.31
2022-11-01T20:19:06.510Z,100729.22
2022-11-01T20:21:33.275Z,100725.09
2022-11-01T20:23:59.922Z,100730.66
2022-11-01T20:26:26.205Z,100729.41
2022-11-01T20:28:52.488Z,100736.03
2022-11-01T20:34:11.886Z,100752.00
2022-11-01T20:36:38.639Z,100749.31
2022-11-01T20:39:04.920Z,100757.94
2022-11-01T20:41:31.236Z,100757.06
2022-11-01T20:43:57.481Z,100748.81
2022-11-01T20:46:25.764Z,100753.06
2022-11-01T20:48:52.009Z,100757.47
2022-11-01T20:51:18.320Z,100755.22
2022-11-01T20:53:44.572Z,100753.44
2022-11-01T20:56:10.864Z,100753.97
2022-11-01T20:58:43.890Z,100751.03
2022-11-01T21:01:10.267Z,100746.69
2022-11-01T21:03:36.569Z,100754.78
2022-11-01T21:06:02.897Z,100753.56
2022-11-01T21:08:30.364Z,100753.72
2022-11-01T21:10:57.391Z,100761.94
2022-11-01T21:13:23.721Z,100754.69
2022-11-01T21:15:49.989Z,100751.50
2022-11-01T21:18:17.485Z,100747.22
2022-11-01T21:20:43.742Z,100741.81
2022-11-01T21:23:10.069Z,100743.38
2022-11-01T21:25:36.317Z,100754.09
2022-11-01T21:28:02.782Z,100752.56
2022-11-01T21:30:29.275Z,100750.28
2022-11-01T21:32:55.558Z,100755.19
2022-11-01T21:35:21.818Z,100753.34
2022-11-01T21:37:48.234Z,100755.84
2022-11-01T21:40:14.785Z,100749.81
2022-11-01T21:42:41.153Z,100745.31
2022-11-01T21:45:07.426Z,100751.97
2022-11-01T21:47:36.757Z,100732.75
2022-11-01T21:50:03.006Z,100732.34
2022-11-01T21:52:29.604Z,100730.84
2022-11-01T21:54:55.977Z,100734.03
2022-11-01T21:57:22.238Z,100749.03
2022-11-01T21:59:48.509Z,100732.91
2022-11-01T22:02:15.088Z,100737.22
2022-11-01T22:04:44.744Z,100732.56
2022-11-01T22:07:11.061Z,100732.47
2022-11-01T22:09:37.877Z,100724.13
2022-11-01T22:12:04.190Z,100724.72
2022-11-01T22:14:30.493Z,100731.66
2022-11-01T22:16:56.899Z,100746.78
2022-11-01T22:19:23.258Z,100739.28
2022-11-01T22:21:49.612Z,100740.78
2022-11-01T22:24:15.931Z,100744.19
2022-11-01T22:26:42.199Z,100746.03
2022-11-01T22:29:08.525Z,100755.09
2022-11-01T22:31:34.783Z,100752.16
2022-11-01T22:34:01.028Z,100763.19
2022-11-01T22:36:27.309Z,100754.22
2022-11-01T22:38:53.562Z,100763.97
2022-11-01T22:41:19.808Z,100756.56
2022-11-01T22:43:46.201Z,100761.44
2022-11-01T22:46:12.448Z,100752.22
2022-11-01T22:48:38.695Z,100750.69
2022-11-01T22:51:04.962Z,100760.66
2022-11-01T22:53:31.213Z,100753.81
2022-11-01T22:55:57.646Z,100768.56
2022-11-01T22:58:23.901Z,100760.69
2022-11-01T23:00:50.361Z,100758.91
2022-11-01T23:03:16.600Z,100762.66
2022-11-01T23:05:43.318Z,100765.31
2022-11-01T23:08:09.570Z,100771.56
2022-11-01T23:10:35.850Z,100767.19
2022-11-01T23:13:20.577Z,100758.94
2022-11-01T23:15:46.868Z,100763.66
2022-11-01T23:18:13.117Z,100771.84
2022-11-01T23:20:40.073Z,100767.09
2022-11-01T23:23:06.738Z,100772.19
2022-11-01T23:25:33.639Z,100782.78
2022-11-01T23:27:59.898Z,100778.03
2022-11-01T23:30:26.316Z,100777.78
2022-11-01T23:32:52.600Z,100782.09
2022-11-01T23:35:18.912Z,100783.31
2022-11-01T23:37:45.212Z,100788.13
2022-11-01T23:40:11.480Z,100781.56
2022-11-01T23:42:37.737Z,100782.94
2022-11-01T23:45:06.164Z,100782.16
2022-11-01T23:47:33.397Z,100787.19
2022-11-01T23:49:59.649Z,100779.16
2022-11-01T23:52:25.910Z,100783.31
2022-11-01T23:54:52.161Z,100782.69
2022-11-01T23:57:18.418Z,100782.88
2022-11-01T23:59:44.672Z,100779.50
